createdAt,value
2023-04-28T00:00:24.100Z,72.90
2023-04-28T00:02:54.348Z,72.70
2023-04-28T00:05:23.913Z,73.20
2023-04-28T00:07:53.272Z,74.10
2023-04-28T00:10:22.645Z,73.80
2023-04-28T00:12:51.925Z,73.00
2023-04-28T00:15:22.705Z,73.30
2023-04-28T00:17:52.106Z,74.20
2023-04-28T00:20:21.718Z,74.80
2023-04-28T00:22:50.959Z,75.10
2023-04-28T00:25:20.360Z,74.70
2023-04-28T00:27:49.571Z,74.90
2023-04-28T00:30:19.318Z,75.30
2023-04-28T00:32:52.058Z,75.10
2023-04-28T00:35:21.494Z,75.40
2023-04-28T00:37:50.787Z,75.10
2023-04-28T00:40:20.196Z,75.60
2023-04-28T00:42:49.416Z,75.70
2023-04-28T00:45:18.747Z,75.80
2023-04-28T00:47:48.112Z,75.80
2023-04-28T00:50:19.039Z,75.40
2023-04-28T00:52:49.399Z,75.80
2023-04-28T00:55:18.970Z,76.10
2023-04-28T00:57:48.329Z,75.50
2023-04-28T01:00:19.020Z,75.10
2023-04-28T01:02:48.393Z,75.10
2023-04-28T01:05:19.913Z,75.20
2023-04-28T01:07:49.559Z,76.40
2023-04-28T01:10:18.778Z,76.70
2023-04-28T01:12:48.165Z,78.00
2023-04-28T01:15:19.507Z,79.60
2023-04-28T01:17:51.221Z,80.40
2023-04-28T01:20:22.245Z,81.10
2023-04-28T01:22:51.997Z,82.70
2023-04-28T01:25:23.397Z,82.00
2023-04-28T01:27:53.150Z,82.40
2023-04-28T01:30:22.634Z,81.80
2023-04-28T01:32:51.917Z,83.30
2023-04-28T01:35:22.017Z,84.00
2023-04-28T01:37:51.278Z,85.00
2023-04-28T01:40:20.587Z,85.60
2023-04-28T01:42:51.406Z,86.30
2023-04-28T01:45:20.736Z,86.70
2023-04-28T01:47:50.045Z,87.70
2023-04-28T01:50:19.429Z,87.50
2023-04-28T01:52:48.580Z,88.10
2023-04-28T01:55:18.919Z,89.70
2023-04-28T01:57:49.778Z,89.80
2023-04-28T02:00:20.360Z,90.60
2023-04-28T02:02:53.558Z,90.30
2023-04-28T02:05:22.991Z,90.50
2023-04-28T02:07:53.735Z,91.30
2023-04-28T02:10:23.229Z,91.40
2023-04-28T02:12:53.946Z,91.70
2023-04-28T02:15:23.455Z,91.80
2023-04-28T02:17:52.830Z,92.00
2023-04-28T02:20:22.196Z,92.10
2023-04-28T02:22:51.397Z,93.10
2023-04-28T02:25:20.874Z,93.50
2023-04-28T02:27:50.085Z,93.70
2023-04-28T02:30:21.003Z,94.20
2023-04-28T02:32:51.022Z,94.60
2023-04-28T02:35:20.660Z,93.70
2023-04-28T02:37:49.867Z,93.80
2023-04-28T02:40:21.441Z,94.00
2023-04-28T02:42:50.837Z,94.00
2023-04-28T02:45:21.623Z,93.80
2023-04-28T02:47:51.130Z,93.80
2023-04-28T02:50:20.833Z,94.00
2023-04-28T02:52:50.022Z,95.00
2023-04-28T02:55:24.450Z,95.10
2023-04-28T02:57:55.413Z,95.00
2023-04-28T03:00:26.313Z,94.20
2023-04-28T03:02:56.316Z,94.30
2023-04-28T03:05:25.804Z,95.00
2023-04-28T03:07:55.134Z,94.70
2023-04-28T03:10:24.717Z,94.90
2023-04-28T03:12:54.080Z,94.50
2023-04-28T03:15:24.874Z,93.70
2023-04-28T03:17:54.247Z,93.40
2023-04-28T03:20:23.496Z,93.30
2023-04-28T03:22:52.774Z,93.40
2023-04-28T03:25:22.192Z,93.40
2023-04-28T03:27:53.503Z,93.50
2023-04-28T03:30:22.920Z,92.70
2023-04-28T03:32:53.815Z,92.20
2023-04-28T03:35:23.273Z,91.90
2023-04-28T03:37:52.609Z,91.70
2023-04-28T03:40:21.861Z,91.60
2023-04-28T03:43:22.703Z,91.40
2023-04-28T03:46:18.068Z,91.40
2023-04-28T03:48:49.029Z,91.50
2023-04-28T03:51:21.631Z,91.50
2023-04-28T03:53:51.233Z,91.80
2023-04-28T03:56:20.487Z,91.80
2023-04-28T03:58:49.838Z,91.80
2023-04-28T04:01:19.402Z,92.00
2023-04-28T04:03:52.380Z,91.70
2023-04-28T04:06:22.975Z,91.70
2023-04-28T04:08:54.985Z,91.90
2023-04-28T04:11:24.544Z,92.00
2023-04-28T04:13:53.729Z,91.80
2023-04-28T04:16:25.038Z,91.80
2023-04-28T04:18:58.253Z,92.10
2023-04-28T04:21:47.785Z,91.80
2023-04-28T04:24:17.471Z,92.00
2023-04-28T04:26:46.972Z,91.90
2023-04-28T04:29:28.571Z,92.00
2023-04-28T04:31:58.164Z,92.50
2023-04-28T04:34:28.833Z,93.30
2023-04-28T04:36:58.020Z,93.30
2023-04-28T04:39:27.984Z,93.10
2023-04-28T04:41:57.226Z,92.50
2023-04-28T04:44:55.591Z,92.60
2023-04-28T04:47:30.047Z,92.70
2023-04-28T04:50:00.784Z,92.90
2023-04-28T04:52:31.125Z,93.10
2023-04-28T04:55:00.427Z,92.90
2023-04-28T04:57:29.885Z,92.50
2023-04-28T05:00:05.469Z,93.00
2023-04-28T05:02:35.076Z,93.00
2023-04-28T05:05:20.522Z,93.10
2023-04-28T05:07:55.438Z,93.50
2023-04-28T05:10:26.514Z,93.40
2023-04-28T05:12:56.402Z,93.00
2023-04-28T05:15:26.389Z,92.80
2023-04-28T05:18:15.577Z,92.80
2023-04-28T05:20:46.361Z,92.00
2023-04-28T05:23:20.196Z,92.30
2023-04-28T05:25:50.243Z,92.50
2023-04-28T05:28:21.901Z,92.80
2023-04-28T05:30:53.014Z,93.00
2023-04-28T05:33:22.826Z,93.10
2023-04-28T05:35:53.954Z,93.80
2023-04-28T05:38:24.488Z,93.90
2023-04-28T05:40:54.305Z,93.50
2023-04-28T05:43:23.840Z,93.00
2023-04-28T05:45:53.187Z,93.80
2023-04-28T05:48:22.441Z,93.50
2023-04-28T05:50:53.121Z,93.70
2023-04-28T05:53:22.491Z,93.10
2023-04-28T05:55:53.260Z,93.80
2023-04-28T05:58:23.119Z,93.70
2023-04-28T06:00:52.453Z,93.40
2023-04-28T06:03:21.963Z,92.60
2023-04-28T06:05:53.526Z,92.30
2023-04-28T06:08:23.007Z,92.10
2023-04-28T06:10:52.232Z,93.00
2023-04-28T06:13:23.231Z,92.50
2023-04-28T06:15:52.527Z,92.10
2023-04-28T06:18:23.923Z,91.60
2023-04-28T06:20:56.880Z,92.50
2023-04-28T06:23:26.316Z,91.30
2023-04-28T06:25:56.727Z,91.10
2023-04-28T06:28:25.987Z,90.80
2023-04-28T06:30:55.726Z,90.20
2023-04-28T06:33:25.049Z,89.80
2023-04-28T06:35:55.805Z,90.30
2023-04-28T06:38:25.146Z,88.10
2023-04-28T06:40:54.402Z,86.60
2023-04-28T06:43:23.814Z,88.70
2023-04-28T06:46:03.340Z,88.90
2023-04-28T06:48:32.832Z,85.00
2023-04-28T06:51:03.882Z,86.00
2023-04-28T06:53:34.026Z,87.10
2023-04-28T06:56:04.024Z,85.80
2023-04-28T06:58:33.429Z,85.70
2023-04-28T07:01:04.393Z,85.60
2023-04-28T07:03:33.814Z,84.90
2023-04-28T07:06:04.959Z,82.80
2023-04-28T07:08:34.332Z,81.90
2023-04-28T07:11:05.075Z,81.80
2023-04-28T07:13:34.545Z,79.80
2023-04-28T07:16:03.917Z,81.30
2023-04-28T07:18:33.329Z,80.10
2023-04-28T07:21:05.492Z,81.30
2023-04-28T07:23:34.929Z,81.90
2023-04-28T07:26:04.272Z,81.40
2023-04-28T07:28:33.507Z,81.60
2023-04-28T07:31:02.781Z,81.70
2023-04-28T07:33:32.057Z,81.30
2023-04-28T07:36:01.705Z,80.40
2023-04-28T07:38:32.508Z,81.10
2023-04-28T07:41:02.175Z,80.10
2023-04-28T07:43:31.865Z,81.60
2023-04-28T07:46:01.126Z,82.70
2023-04-28T07:48:32.746Z,83.10
2023-04-28T07:51:02.031Z,81.60
2023-04-28T07:56:02.299Z,80.80
2023-04-28T07:58:31.987Z,82.00
2023-04-28T08:01:01.275Z,83.50
2023-04-28T08:03:30.741Z,82.90
2023-04-28T08:06:00.785Z,83.80
2023-04-28T08:08:31.791Z,83.90
2023-04-28T08:11:01.077Z,82.60
2023-04-28T08:13:31.043Z,84.00
2023-04-28T08:16:01.833Z,83.40
2023-04-28T08:18:31.978Z,82.70
2023-04-28T08:21:01.212Z,84.40
2023-04-28T08:23:32.392Z,85.30
2023-04-28T08:26:01.633Z,83.50
2023-04-28T08:28:30.908Z,80.90
2023-04-28T08:31:01.214Z,81.00
2023-04-28T08:33:30.479Z,82.10
2023-04-28T08:35:59.893Z,83.80
2023-04-28T08:38:29.249Z,82.20
2023-04-28T08:41:00.004Z,81.60
2023-04-28T08:43:30.517Z,83.60
2023-04-28T08:46:00.617Z,82.10
2023-04-28T08:48:31.748Z,81.70
2023-04-28T08:51:02.731Z,80.80
2023-04-28T08:53:33.288Z,81.10
2023-04-28T08:56:07.371Z,80.70
2023-04-28T08:58:39.028Z,82.30
2023-04-28T09:01:08.353Z,81.50
2023-04-28T09:03:37.913Z,79.30
2023-04-28T09:06:07.584Z,78.80
2023-04-28T09:08:36.806Z,80.00
2023-04-28T09:11:13.922Z,77.70
2023-04-28T09:13:43.466Z,79.10
2023-04-28T09:16:13.361Z,80.60
2023-04-28T09:18:56.996Z,79.60
2023-04-28T09:21:26.267Z,74.90
2023-04-28T09:23:55.414Z,77.50
2023-04-28T09:26:26.240Z,76.50
2023-04-28T09:29:13.225Z,75.00
2023-04-28T09:31:43.246Z,76.50
2023-04-28T09:34:15.709Z,74.60
2023-04-28T09:36:45.284Z,73.20
2023-04-28T09:39:14.571Z,77.70
2023-04-28T09:41:47.112Z,77.10
2023-04-28T09:44:19.563Z,72.60
2023-04-28T09:46:49.631Z,71.60
2023-04-28T09:49:18.948Z,70.40
2023-04-28T09:51:48.194Z,68.70
2023-04-28T09:54:18.817Z,71.90
2023-04-28T09:56:50.007Z,71.30
2023-04-28T09:59:19.465Z,72.90
2023-04-28T10:01:49.085Z,71.80
2023-04-28T10:04:19.206Z,70.90
2023-04-28T10:06:48.869Z,68.80
2023-04-28T10:09:26.788Z,69.10
2023-04-28T10:11:57.756Z,67.40
2023-04-28T10:14:27.277Z,66.10
2023-04-28T10:16:56.966Z,63.10
2023-04-28T10:19:26.433Z,63.40
2023-04-28T10:22:07.696Z,63.10
2023-04-28T10:24:54.714Z,59.80
2023-04-28T10:27:32.057Z,61.30
2023-04-28T10:30:26.527Z,62.20
2023-04-28T10:33:27.567Z,59.90
2023-04-28T10:35:56.967Z,59.20
2023-04-28T10:38:26.287Z,60.00
2023-04-28T10:40:55.872Z,58.60
2023-04-28T10:43:40.467Z,60.00
2023-04-28T10:46:12.644Z,55.70
2023-04-28T10:49:08.831Z,55.90
2023-04-28T10:51:38.391Z,49.60
2023-04-28T10:54:18.147Z,54.30
2023-04-28T10:57:19.663Z,55.80
2023-04-28T10:59:51.807Z,49.80
2023-04-28T11:02:44.836Z,55.00
2023-04-28T11:05:19.469Z,53.80
2023-04-28T11:08:40.223Z,51.50
2023-04-28T11:11:20.036Z,52.60
2023-04-28T11:13:50.668Z,54.10
2023-04-28T11:16:23.499Z,53.40
2023-04-28T11:18:58.999Z,50.10
2023-04-28T11:21:29.825Z,53.50
2023-04-28T11:24:00.257Z,48.70
2023-04-28T11:26:30.825Z,48.10
2023-04-28T11:29:00.221Z,50.20
2023-04-28T11:31:31.433Z,53.10
2023-04-28T11:34:05.404Z,52.50
2023-04-28T11:36:37.000Z,45.60
2023-04-28T11:39:08.150Z,50.30
2023-04-28T11:41:38.326Z,49.70
2023-04-28T11:44:14.712Z,50.10
2023-04-28T11:46:51.384Z,44.70
2023-04-28T11:49:21.649Z,48.80
2023-04-28T11:54:24.786Z,38.20
2023-04-28T11:56:54.721Z,39.10
2023-04-28T11:59:31.128Z,40.80
2023-04-28T12:02:03.727Z,35.80
2023-04-28T12:04:37.217Z,36.40
2023-04-28T12:07:10.550Z,35.00
2023-04-28T12:09:41.194Z,34.50
2023-04-28T12:12:12.501Z,34.80
2023-04-28T12:14:58.174Z,34.20
2023-04-28T12:17:30.316Z,32.40
2023-04-28T12:20:02.419Z,31.10
2023-04-28T12:22:32.297Z,33.20
2023-04-28T12:25:09.434Z,31.40
2023-04-28T12:27:40.866Z,32.20
2023-04-28T12:30:28.139Z,37.90
2023-04-28T12:32:59.232Z,35.80
2023-04-28T12:35:29.798Z,33.00
2023-04-28T12:37:59.983Z,32.40
2023-04-28T12:40:31.256Z,32.90
2023-04-28T12:43:00.677Z,31.10
2023-04-28T12:45:30.639Z,32.80
2023-04-28T12:48:02.009Z,35.60
2023-04-28T12:50:33.340Z,36.10
2023-04-28T12:53:02.697Z,33.50
2023-04-28T12:55:32.062Z,37.20
2023-04-28T12:58:01.465Z,34.60
2023-04-28T13:00:30.820Z,33.40
2023-04-28T13:03:01.925Z,31.90
2023-04-28T13:05:31.383Z,30.60
2023-04-28T13:08:00.710Z,32.30
2023-04-28T13:10:30.071Z,36.10
2023-04-28T13:12:59.374Z,35.20
2023-04-28T13:15:28.727Z,35.40
2023-04-28T13:18:00.214Z,36.40
2023-04-28T13:20:31.374Z,35.10
2023-04-28T13:23:00.857Z,34.80
2023-04-28T13:25:30.255Z,35.10
2023-04-28T13:27:59.555Z,34.60
2023-04-28T13:30:29.017Z,34.90
2023-04-28T13:32:58.463Z,30.80
2023-04-28T13:35:27.845Z,33.70
2023-04-28T13:38:02.275Z,30.50
2023-04-28T13:40:31.681Z,30.00
2023-04-28T13:43:01.105Z,32.10
2023-04-28T13:45:30.624Z,28.60
2023-04-28T13:48:01.056Z,27.50
2023-04-28T13:50:30.595Z,29.50
2023-04-28T13:53:01.381Z,30.30
2023-04-28T13:55:30.831Z,30.30
2023-04-28T13:58:03.080Z,29.20
2023-04-28T14:00:33.055Z,30.00
2023-04-28T14:03:03.662Z,29.30
2023-04-28T14:05:42.059Z,29.40
2023-04-28T14:08:20.732Z,27.30
2023-04-28T14:10:50.648Z,26.60
2023-04-28T14:13:20.598Z,26.00
2023-04-28T14:15:58.521Z,24.70
2023-04-28T14:18:28.990Z,25.30
2023-04-28T14:20:58.466Z,27.70
2023-04-28T14:23:29.468Z,28.10
2023-04-28T14:25:58.947Z,29.10
2023-04-28T14:28:28.346Z,29.10
2023-04-28T14:30:57.826Z,28.60
2023-04-28T14:33:27.327Z,28.90
2023-04-28T14:35:56.746Z,28.00
2023-04-28T14:38:26.207Z,28.60
2023-04-28T14:40:57.196Z,28.20
2023-04-28T14:43:26.853Z,29.20
2023-04-28T14:45:56.353Z,28.20
2023-04-28T14:48:26.424Z,28.00
2023-04-28T14:50:55.794Z,28.40
2023-04-28T14:53:25.295Z,28.80
2023-04-28T14:56:01.952Z,28.40
2023-04-28T14:58:40.453Z,28.20
2023-04-28T15:01:10.219Z,27.20
2023-04-28T15:03:39.746Z,27.20
2023-04-28T15:06:09.229Z,24.80
2023-04-28T15:08:40.644Z,25.20
2023-04-28T15:11:11.512Z,27.60
2023-04-28T15:13:42.990Z,28.10
2023-04-28T15:16:12.727Z,27.10
2023-04-28T15:18:42.684Z,27.30
2023-04-28T15:21:13.787Z,26.60
2023-04-28T15:23:43.271Z,27.70
2023-04-28T15:26:14.055Z,27.50
2023-04-28T15:28:43.583Z,26.70
2023-04-28T15:31:12.933Z,27.20
2023-04-28T15:33:42.333Z,26.30
2023-04-28T15:36:11.899Z,26.20
2023-04-28T15:38:42.884Z,25.90
2023-04-28T15:41:14.118Z,26.30
2023-04-28T15:43:44.648Z,27.10
2023-04-28T15:46:17.525Z,26.40
2023-04-28T15:48:47.085Z,25.70
2023-04-28T15:51:16.494Z,25.90
2023-04-28T15:53:45.964Z,26.00
2023-04-28T15:56:19.403Z,26.80
2023-04-28T15:58:49.257Z,28.20
2023-04-28T16:01:21.371Z,29.60
2023-04-28T16:03:51.961Z,30.10
2023-04-28T16:06:21.670Z,29.40
2023-04-28T16:08:50.950Z,30.00
2023-04-28T16:11:21.911Z,30.90
2023-04-28T16:13:51.699Z,30.30
2023-04-28T16:16:21.201Z,29.40
2023-04-28T16:18:50.616Z,29.60
2023-04-28T16:21:20.009Z,29.90
2023-04-28T16:23:51.860Z,29.70
2023-04-28T16:26:24.329Z,29.90
2023-04-28T16:28:53.749Z,31.60
2023-04-28T16:31:23.157Z,31.90
2023-04-28T16:33:52.761Z,32.10
2023-04-28T16:36:22.864Z,32.60
2023-04-28T16:38:52.285Z,32.40
2023-04-28T16:41:23.356Z,33.20
2023-04-28T16:43:52.718Z,33.90
2023-04-28T16:46:22.227Z,33.20
2023-04-28T16:48:51.783Z,33.10
2023-04-28T16:51:21.128Z,32.50
2023-04-28T16:53:50.529Z,32.80
2023-04-28T16:56:20.027Z,32.60
2023-04-28T16:58:52.187Z,32.50
2023-04-28T17:01:21.623Z,33.40
2023-04-28T17:03:52.993Z,32.50
2023-04-28T17:06:22.614Z,33.40
2023-04-28T17:08:51.949Z,33.40
2023-04-28T17:11:21.546Z,34.30
2023-04-28T17:13:52.731Z,34.40
2023-04-28T17:16:22.385Z,33.90
2023-04-28T17:18:53.352Z,34.40
2023-04-28T17:21:22.718Z,34.50
2023-04-28T17:23:52.380Z,33.80
2023-04-28T17:26:22.037Z,33.60
2023-04-28T17:28:53.700Z,34.20
2023-04-28T17:31:23.169Z,33.40
2023-04-28T17:33:53.294Z,33.50
2023-04-28T17:36:23.638Z,34.50
2023-04-28T17:38:52.955Z,35.00
2023-04-28T17:41:23.148Z,34.70
2023-04-28T17:43:54.051Z,35.10
2023-04-28T17:46:23.475Z,35.30
2023-04-28T17:48:52.807Z,36.20
2023-04-28T17:51:22.462Z,37.10
2023-04-28T17:53:51.982Z,38.00
2023-04-28T17:56:21.596Z,38.70
2023-04-28T17:58:51.017Z,39.50
2023-04-28T18:01:21.837Z,40.10
2023-04-28T18:03:52.131Z,41.40
2023-04-28T18:06:22.611Z,42.70
2023-04-28T18:08:52.841Z,43.70
2023-04-28T18:11:22.454Z,45.30
2023-04-28T18:13:51.756Z,46.20
2023-04-28T18:16:22.853Z,48.20
2023-04-28T18:18:52.205Z,49.50
2023-04-28T18:21:21.601Z,51.30
2023-04-28T18:23:51.053Z,53.50
2023-04-28T18:26:21.242Z,55.90
2023-04-28T18:28:50.509Z,58.10
2023-04-28T18:31:20.138Z,61.20
2023-04-28T18:33:51.083Z,64.00
2023-04-28T18:36:20.432Z,66.90
2023-04-28T18:38:49.763Z,68.70
2023-04-28T18:41:20.024Z,73.50
2023-04-28T18:43:49.392Z,76.30
2023-04-28T18:46:18.729Z,78.00
2023-04-28T18:48:51.114Z,78.90
2023-04-28T18:51:22.121Z,80.40
2023-04-28T18:53:51.495Z,81.80
2023-04-28T18:56:23.164Z,82.60
2023-04-28T18:58:52.575Z,83.70
2023-04-28T19:01:22.229Z,85.50
2023-04-28T19:03:51.970Z,85.70
2023-04-28T19:06:23.210Z,88.60
2023-04-28T19:08:52.524Z,89.40
2023-04-28T19:11:21.866Z,86.40
2023-04-28T19:13:51.173Z,90.00
2023-04-28T19:16:20.542Z,90.50
2023-04-28T19:18:50.212Z,91.20
2023-04-28T19:21:19.545Z,91.20
2023-04-28T19:23:50.435Z,91.40
2023-04-28T19:26:19.778Z,91.70
2023-04-28T19:28:49.168Z,92.10
2023-04-28T19:31:18.559Z,92.50
2023-04-28T19:33:48.188Z,92.50
2023-04-28T19:36:18.059Z,92.30
2023-04-28T19:38:49.036Z,93.40
2023-04-28T19:41:18.385Z,93.30
2023-04-28T19:43:47.692Z,93.00
2023-04-28T19:46:17.357Z,94.20
2023-04-28T19:48:47.339Z,94.80
2023-04-28T19:51:17.166Z,94.80
2023-04-28T19:53:47.478Z,94.80
2023-04-28T19:56:18.285Z,94.80
2023-04-28T19:58:47.605Z,95.30
2023-04-28T20:01:16.947Z,94.50
2023-04-28T20:03:46.404Z,95.70
2023-04-28T20:06:18.196Z,96.00
2023-04-28T20:08:47.588Z,95.90
2023-04-28T20:11:20.368Z,95.70
2023-04-28T20:13:49.710Z,96.10
2023-04-28T20:16:20.770Z,95.00
2023-04-28T20:18:51.265Z,94.80
2023-04-28T20:21:21.587Z,96.00
2023-04-28T20:23:51.072Z,94.10
2023-04-28T20:26:22.738Z,94.10
2023-04-28T20:28:54.421Z,95.00
2023-04-28T20:31:23.941Z,95.50
2023-04-28T20:33:53.777Z,95.20
2023-04-28T20:36:23.064Z,95.40
2023-04-28T20:38:52.415Z,95.50
2023-04-28T20:41:23.184Z,96.10
2023-04-28T20:43:52.708Z,95.70
2023-04-28T20:46:22.109Z,96.30
2023-04-28T20:48:51.429Z,96.40
2023-04-28T20:51:20.897Z,96.90
2023-04-28T20:53:50.116Z,97.80
2023-04-28T20:56:19.427Z,98.00
2023-04-28T20:58:50.268Z,98.60
2023-04-28T21:01:19.788Z,98.00
2023-04-28T21:03:49.110Z,98.10
2023-04-28T21:06:18.714Z,97.90
2023-04-28T21:08:47.965Z,97.60
2023-04-28T21:11:17.902Z,97.90
2023-04-28T21:13:48.984Z,98.20
2023-04-28T21:16:21.458Z,98.30
2023-04-28T21:18:51.373Z,98.30
2023-04-28T21:21:20.654Z,98.30
2023-04-28T21:23:49.914Z,98.00
2023-04-28T21:26:21.015Z,98.80
2023-04-28T21:28:51.869Z,99.20
2023-04-28T21:31:22.153Z,98.40
2023-04-28T21:33:51.420Z,98.60
2023-04-28T21:36:20.763Z,99.20
2023-04-28T21:38:50.032Z,99.20
2023-04-28T21:41:19.315Z,98.90
2023-04-28T21:43:48.591Z,99.60
2023-04-28T21:46:20.158Z,99.70
2023-04-28T21:48:49.542Z,99.30
2023-04-28T21:51:19.331Z,99.50
2023-04-28T21:53:48.534Z,99.80
2023-04-28T21:56:17.812Z,99.00
2023-04-28T21:58:47.049Z,98.50
2023-04-28T22:01:18.303Z,98.20
2023-04-28T22:03:49.553Z,98.70
2023-04-28T22:06:19.080Z,98.90
2023-04-28T22:08:48.464Z,98.70
2023-04-28T22:11:17.711Z,98.60
2023-04-28T22:13:47.063Z,98.40
2023-04-28T22:16:16.589Z,98.60
2023-04-28T22:18:45.852Z,99.00
2023-04-28T22:21:16.917Z,98.60
2023-04-28T22:23:46.231Z,98.40
2023-04-28T22:26:30.087Z,98.10
2023-04-28T22:28:59.834Z,98.50
2023-04-28T22:31:28.995Z,98.50
2023-04-28T22:33:58.264Z,98.60
2023-04-28T22:36:29.010Z,98.60
2023-04-28T22:38:58.335Z,98.40
2023-04-28T22:41:27.589Z,99.00
2023-04-28T22:43:56.814Z,98.60
2023-04-28T22:46:30.905Z,98.90
2023-04-28T22:49:00.158Z,98.50
2023-04-28T22:51:31.798Z,99.70
2023-04-28T22:54:01.770Z,98.90
2023-04-28T22:56:31.116Z,98.90
2023-04-28T22:59:00.802Z,99.40
2023-04-28T23:01:30.084Z,98.30
2023-04-28T23:03:59.485Z,98.70
2023-04-28T23:06:32.406Z,98.30
2023-04-28T23:09:03.824Z,98.30
2023-04-28T23:11:33.113Z,98.20
2023-04-28T23:14:02.565Z,98.60
2023-04-28T23:16:31.881Z,98.90
2023-04-28T23:19:01.217Z,98.40
2023-04-28T23:21:32.179Z,98.80
2023-04-28T23:24:01.491Z,99.20
2023-04-28T23:26:31.143Z,98.50
2023-04-28T23:29:00.365Z,98.30
2023-04-28T23:31:29.755Z,98.30
2023-04-28T23:33:59.831Z,98.40
2023-04-28T23:36:29.028Z,98.60
2023-04-28T23:38:59.831Z,98.40
2023-04-28T23:41:30.357Z,98.70
2023-04-28T23:43:59.626Z,98.70
2023-04-28T23:46:29.345Z,99.00
2023-04-28T23:48:58.664Z,99.00
2023-04-28T23:51:28.030Z,98.50
2023-04-28T23:53:58.814Z,99.20
2023-04-28T23:56:28.362Z,99.50
2023-04-28T23:58:57.615Z,99.30
